Time;durP1;ratioP1;P1;durP2;ratioP2;P2;SDS_P1;SDS_P2;PMS_P1;PMS_P2;Temp;Humidity;BMP_temperature;BMP_pressure;BME280_temperature;BME280_humidity;BME280_pressure;Samples;Min_cycle;Max_cycle;Signal;HPM_P1;HPM_P2
2021/01/13 00:01:18;;;;;;;7.77;4.13;;;;;;;;;;10401270;28;20637;-70
2021/01/13 00:06:20;;;;;;;9.80;5.47;;;;;;;;;;10385228;28;20220;-68
2021/01/13 00:11:23;;;;;;;9.00;4.70;;;;;;;;;;10396346;28;20208;-70
2021/01/13 00:16:24;;;;;;;10.93;5.53;;;;;;;;;;10399732;28;20987;-71
2021/01/13 00:21:26;;;;;;;13.47;6.80;;;;;;;;;;10398553;28;20182;-70
2021/01/13 00:26:29;;;;;;;10.37;5.47;;;;;;;;;;10400584;28;20210;-70
2021/01/13 00:31:30;;;;;;;9.13;4.63;;;;;;;;;;10398718;28;20261;-71
2021/01/13 00:36:32;;;;;;;12.10;5.73;;;;;;;;;;10399987;28;20221;-71
2021/01/13 00:41:37;;;;;;;11.00;5.47;;;;;;;;;;10385912;28;20202;-69
2021/01/13 00:46:39;;;;;;;11.70;6.07;;;;;;;;;;10387116;28;20273;-71
2021/01/13 00:51:42;;;;;;;12.73;6.23;;;;;;;;;;10382605;28;20210;-71
2021/01/13 00:56:47;;;;;;;12.73;6.10;;;;;;;;;;10404451;28;20296;-71
2021/01/13 01:01:49;;;;;;;12.37;6.07;;;;;;;;;;10402044;28;20236;-70
2021/01/13 01:06:50;;;;;;;8.47;3.97;;;;;;;;;;10403501;28;20206;-72
2021/01/13 01:11:53;;;;;;;11.97;5.80;;;;;;;;;;10408439;28;20206;-71
2021/01/13 01:16:55;;;;;;;14.00;6.90;;;;;;;;;;10407829;28;20221;-70
2021/01/13 01:21:57;;;;;;;11.43;6.00;;;;;;;;;;10405306;28;20232;-71
2021/01/13 01:26:59;;;;;;;13.57;6.33;;;;;;;;;;10387854;28;20308;-71
2021/01/13 01:32:03;;;;;;;13.33;6.57;;;;;;;;;;10407953;28;20783;-71
2021/01/13 01:37:05;;;;;;;11.30;5.30;;;;;;;;;;10384080;28;20225;-71
2021/01/13 01:42:10;;;;;;;14.03;6.97;;;;;;;;;;10403829;28;20190;-71
2021/01/13 01:47:12;;;;;;;13.80;6.33;;;;;;;;;;10398526;28;20233;-71
2021/01/13 01:52:16;;;;;;;12.57;6.33;;;;;;;;;;10380172;28;20341;-71
2021/01/13 01:57:20;;;;;;;14.50;6.40;;;;;;;;;;10406119;28;20221;-70
2021/01/13 02:02:22;;;;;;;9.70;4.03;;;;;;;;;;10402606;28;20198;-70
2021/01/13 02:07:33;;;;;;;12.50;5.73;;;;;;;;;;10386399;28;20614;-70
2021/01/13 02:12:36;;;;;;;11.93;6.10;;;;;;;;;;10405077;28;20280;-71
2021/01/13 02:17:38;;;;;;;12.27;4.93;;;;;;;;;;10399219;28;20727;-70
2021/01/13 02:22:51;;;;;;;9.03;4.17;;;;;;;;;;10386823;28;20317;-70
2021/01/13 02:27:58;;;;;;;9.47;3.80;;;;;;;;;;10402563;28;20240;-70
2021/01/13 02:33:03;;;;;;;6.63;2.07;;;;;;;;;;10406215;28;20312;-70
2021/01/13 02:38:07;;;;;;;13.80;5.70;;;;;;;;;;10392487;28;20644;-71
2021/01/13 02:43:10;;;;;;;12.13;5.23;;;;;;;;;;10398542;28;20186;-70
2021/01/13 02:48:13;;;;;;;12.87;5.40;;;;;;;;;;10397748;28;20221;-70
2021/01/13 02:53:29;;;;;;;13.70;5.60;;;;;;;;;;10381614;28;20209;-70
2021/01/13 02:58:35;;;;;;;14.23;6.23;;;;;;;;;;10405320;28;20240;-71
2021/01/13 03:03:38;;;;;;;13.87;5.00;;;;;;;;;;10403525;28;20305;-71
2021/01/13 03:08:43;;;;;;;13.43;5.53;;;;;;;;;;10403893;28;20690;-71
2021/01/13 03:13:46;;;;;;;10.53;3.83;;;;;;;;;;10383406;28;20384;-71
2021/01/13 03:18:54;;;;;;;10.97;4.23;;;;;;;;;;10398679;28;20694;-70
2021/01/13 03:24:04;;;;;;;9.77;3.90;;;;;;;;;;10409190;28;20223;-71
2021/01/13 03:29:07;;;;;;;14.17;5.50;;;;;;;;;;10401541;28;20629;-70
2021/01/13 03:34:21;;;;;;;12.23;5.70;;;;;;;;;;10403224;28;20214;-70
2021/01/13 03:39:23;;;;;;;12.50;5.27;;;;;;;;;;10411968;28;20281;-70
2021/01/13 03:44:27;;;;;;;13.27;5.63;;;;;;;;;;10404379;28;20190;-70
2021/01/13 03:49:34;;;;;;;9.90;3.87;;;;;;;;;;10399381;28;20638;-70
2021/01/13 03:54:36;;;;;;;11.23;3.97;;;;;;;;;;10394143;28;20221;-70
2021/01/13 03:59:44;;;;;;;13.83;5.40;;;;;;;;;;10402450;28;20276;-70
2021/01/13 04:04:48;;;;;;;17.10;6.33;;;;;;;;;;10399904;28;20297;-72
2021/01/13 04:09:52;;;;;;;11.20;4.90;;;;;;;;;;10382380;28;20593;-70
2021/01/13 04:14:56;;;;;;;15.93;7.20;;;;;;;;;;10402033;28;20681;-71
2021/01/13 04:19:58;;;;;;;11.70;5.57;;;;;;;;;;10396048;28;20276;-73
2021/01/13 04:25:00;;;;;;;14.87;6.70;;;;;;;;;;10381404;28;20644;-70
2021/01/13 04:30:06;;;;;;;13.27;6.53;;;;;;;;;;10392287;28;20213;-71
2021/01/13 04:35:08;;;;;;;16.20;5.17;;;;;;;;;;10400173;28;20217;-70
2021/01/13 04:40:23;;;;;;;13.33;6.27;;;;;;;;;;10397997;28;20381;-70
2021/01/13 04:45:34;;;;;;;11.80;4.87;;;;;;;;;;10399176;28;20192;-70
2021/01/13 04:50:36;;;;;;;14.00;5.80;;;;;;;;;;10395932;28;20221;-69
2021/01/13 04:55:44;;;;;;;13.13;3.77;;;;;;;;;;10396568;28;20272;-69
2021/01/13 05:00:57;;;;;;;13.30;6.00;;;;;;;;;;10397846;28;20332;-69
2021/01/13 05:06:06;;;;;;;14.43;6.37;;;;;;;;;;10401297;28;20193;-69
2021/01/13 05:11:12;;;;;;;14.80;6.20;;;;;;;;;;10401324;28;20194;-69
2021/01/13 05:16:14;;;;;;;11.50;5.80;;;;;;;;;;10378188;28;20681;-69
2021/01/13 05:21:17;;;;;;;12.10;5.03;;;;;;;;;;10400956;28;20637;-70
2021/01/13 05:26:20;;;;;;;10.50;3.47;;;;;;;;;;10401686;28;20226;-71
2021/01/13 05:31:32;;;;;;;15.23;6.37;;;;;;;;;;10387087;28;20205;-70
2021/01/13 05:36:39;;;;;;;10.83;4.37;;;;;;;;;;10405308;28;20237;-70
2021/01/13 05:41:41;;;;;;;13.17;4.70;;;;;;;;;;10395757;28;20218;-69
2021/01/13 05:46:45;;;;;;;13.33;5.67;;;;;;;;;;10402688;28;20218;-73
2021/01/13 05:51:47;;;;;;;12.70;5.97;;;;;;;;;;10405640;28;20190;-70
2021/01/13 05:56:55;;;;;;;10.93;4.73;;;;;;;;;;10405451;28;20229;-71
2021/01/13 06:01:58;;;;;;;14.97;6.70;;;;;;;;;;10407021;28;20189;-70
2021/01/13 06:07:05;;;;;;;14.13;5.27;;;;;;;;;;10390291;28;20300;-71
2021/01/13 06:12:12;;;;;;;11.87;5.10;;;;;;;;;;10406465;28;20327;-68
2021/01/13 06:17:19;;;;;;;9.10;3.90;;;;;;;;;;10384823;28;20316;-70
2021/01/13 06:22:28;;;;;;;15.70;6.67;;;;;;;;;;10400346;28;20216;-71
2021/01/13 06:27:44;;;;;;;16.87;7.27;;;;;;;;;;10407549;28;20590;-70
2021/01/13 06:32:53;;;;;;;15.70;5.77;;;;;;;;;;10404828;28;20228;-70
2021/01/13 06:37:55;;;;;;;9.10;3.50;;;;;;;;;;10405944;28;20253;-70
2021/01/13 06:42:57;;;;;;;16.47;7.03;;;;;;;;;;10399836;28;20185;-70
2021/01/13 06:48:00;;;;;;;10.67;4.30;;;;;;;;;;10404350;28;20293;-70
2021/01/13 06:53:07;;;;;;;13.73;6.00;;;;;;;;;;10401788;28;20240;-70
2021/01/13 06:58:11;;;;;;;20.20;7.13;;;;;;;;;;10395509;28;20297;-69
2021/01/13 07:03:20;;;;;;;17.87;6.20;;;;;;;;;;10400933;28;20190;-71
2021/01/13 07:08:24;;;;;;;12.57;4.87;;;;;;;;;;10405930;28;20220;-70
2021/01/13 07:13:29;;;;;;;18.10;6.63;;;;;;;;;;10403247;28;20589;-71
2021/01/13 07:18:32;;;;;;;16.47;7.20;;;;;;;;;;10411693;28;20221;-71
2021/01/13 07:23:34;;;;;;;20.00;7.50;;;;;;;;;;10406167;28;20186;-70
2021/01/13 07:28:36;;;;;;;13.77;5.50;;;;;;;;;;10410450;28;20237;-69
2021/01/13 07:33:41;;;;;;;13.97;4.80;;;;;;;;;;10406836;28;20202;-69
2021/01/13 07:38:44;;;;;;;15.90;5.37;;;;;;;;;;10399100;28;20221;-69
2021/01/13 07:44:05;;;;;;;13.77;5.40;;;;;;;;;;10401209;28;20329;-71
2021/01/13 07:49:27;;;;;;;13.33;5.23;;;;;;;;;;10397120;28;20244;-71
2021/01/13 07:54:33;;;;;;;14.80;6.17;;;;;;;;;;10377975;28;20558;-70
2021/01/13 07:59:41;;;;;;;10.97;5.90;;;;;;;;;;10387384;28;20724;-71
2021/01/13 08:05:00;;;;;;;15.60;6.67;;;;;;;;;;10386205;28;20681;-70
2021/01/13 08:10:06;;;;;;;14.43;7.10;;;;;;;;;;10407821;28;20217;-74
2021/01/13 08:15:26;;;;;;;14.70;7.20;;;;;;;;;;10399935;28;20256;-73
2021/01/13 08:20:42;;;;;;;14.37;6.03;;;;;;;;;;10372212;28;20296;-73
2021/01/13 08:25:52;;;;;;;14.07;6.07;;;;;;;;;;10396042;28;20185;-73
2021/01/13 08:30:54;;;;;;;12.70;6.07;;;;;;;;;;10401367;28;20241;-73
2021/01/13 08:35:58;;;;;;;10.87;5.27;;;;;;;;;;10399809;28;20217;-72
2021/01/13 08:41:23;;;;;;;11.97;5.87;;;;;;;;;;10396547;28;20212;-73
2021/01/13 08:46:47;;;;;;;13.20;5.80;;;;;;;;;;10378867;28;20210;-72
2021/01/13 08:52:09;;;;;;;13.47;5.90;;;;;;;;;;10392471;28;20607;-72
2021/01/13 08:57:12;;;;;;;9.27;4.20;;;;;;;;;;10375333;28;20227;-71
2021/01/13 09:02:14;;;;;;;13.30;5.30;;;;;;;;;;10396792;28;20189;-71
2021/01/13 09:07:17;;;;;;;9.73;4.90;;;;;;;;;;10383151;28;20224;-72
2021/01/13 09:12:31;;;;;;;10.90;5.10;;;;;;;;;;10410730;28;20218;-72
2021/01/13 09:17:33;;;;;;;9.67;4.87;;;;;;;;;;10410036;28;20217;-72
2021/01/13 09:22:41;;;;;;;8.60;3.60;;;;;;;;;;10407710;28;20590;-73
2021/01/13 09:27:45;;;;;;;9.03;4.00;;;;;;;;;;10389561;28;20697;-72
2021/01/13 09:32:51;;;;;;;7.97;4.23;;;;;;;;;;10411030;28;20248;-71
2021/01/13 09:37:54;;;;;;;9.17;4.17;;;;;;;;;;10404107;28;20287;-72
2021/01/13 09:42:58;;;;;;;8.80;3.33;;;;;;;;;;10413768;28;20190;-72
2021/01/13 09:48:10;;;;;;;10.37;4.20;;;;;;;;;;10407746;28;20572;-72
2021/01/13 09:53:12;;;;;;;7.70;3.27;;;;;;;;;;10408143;28;20206;-71
2021/01/13 09:58:16;;;;;;;6.80;2.47;;;;;;;;;;10405712;28;20214;-72
2021/01/13 10:03:19;;;;;;;9.87;4.00;;;;;;;;;;10389103;28;20291;-72
2021/01/13 10:08:29;;;;;;;8.17;3.83;;;;;;;;;;10405425;28;20263;-73
2021/01/13 10:13:57;;;;;;;8.50;3.87;;;;;;;;;;10397057;28;20217;-71
2021/01/13 10:19:03;;;;;;;7.13;2.97;;;;;;;;;;10408949;28;20252;-73
2021/01/13 10:24:10;;;;;;;8.10;3.37;;;;;;;;;;10398289;28;20198;-73
2021/01/13 10:29:14;;;;;;;8.03;3.80;;;;;;;;;;10408532;28;20252;-74
2021/01/13 10:34:16;;;;;;;11.40;4.17;;;;;;;;;;10412305;28;20264;-73
2021/01/13 10:39:22;;;;;;;8.53;3.70;;;;;;;;;;10388295;28;20230;-73
2021/01/13 10:44:25;;;;;;;7.93;3.43;;;;;;;;;;10410887;28;20243;-73
2021/01/13 10:49:29;;;;;;;7.57;3.03;;;;;;;;;;10397192;28;20232;-73
2021/01/13 10:54:31;;;;;;;8.00;3.43;;;;;;;;;;10419457;28;20202;-73
2021/01/13 10:59:36;;;;;;;7.70;3.40;;;;;;;;;;10401192;28;20217;-73
2021/01/13 11:04:44;;;;;;;5.87;3.30;;;;;;;;;;10415230;28;20197;-74
2021/01/13 11:09:50;;;;;;;6.83;3.23;;;;;;;;;;10412280;28;20217;-72
2021/01/13 11:14:57;;;;;;;4.60;2.30;;;;;;;;;;10412624;28;20205;-69
2021/01/13 11:20:04;;;;;;;6.60;3.00;;;;;;;;;;10398864;28;20264;-70
2021/01/13 11:25:06;;;;;;;5.00;2.57;;;;;;;;;;10383761;28;20277;-70
2021/01/13 11:30:09;;;;;;;6.13;2.70;;;;;;;;;;10396684;28;20249;-70
2021/01/13 11:35:11;;;;;;;6.20;2.50;;;;;;;;;;10386867;28;20228;-70
2021/01/13 11:40:31;;;;;;;5.67;2.30;;;;;;;;;;10389599;28;20720;-71
2021/01/13 11:45:37;;;;;;;1.10;1.00;;;;;;;;;;10392598;28;20589;-69
2021/01/13 11:50:45;;;;;;;3.47;2.00;;;;;;;;;;10403723;28;20629;-70
2021/01/13 11:55:47;;;;;;;5.70;2.37;;;;;;;;;;10402032;28;20245;-70
2021/01/13 12:00:49;;;;;;;4.47;1.80;;;;;;;;;;10386406;28;20245;-72
2021/01/13 12:05:51;;;;;;;4.13;1.70;;;;;;;;;;10401197;28;20212;-69
2021/01/13 12:10:54;;;;;;;4.97;1.37;;;;;;;;;;10419517;28;20312;-71
2021/01/13 12:16:04;;;;;;;4.77;1.70;;;;;;;;;;10419170;28;20225;-72
2021/01/13 12:21:27;;;;;;;3.80;1.47;;;;;;;;;;10411676;28;20199;-72
2021/01/13 12:26:35;;;;;;;3.47;1.33;;;;;;;;;;10420945;28;20597;-73
2021/01/13 12:31:40;;;;;;;4.60;1.60;;;;;;;;;;10418612;28;20752;-72
2021/01/13 12:36:44;;;;;;;1.33;1.00;;;;;;;;;;10420385;28;20253;-72
2021/01/13 12:41:49;;;;;;;2.20;1.17;;;;;;;;;;10405514;28;20686;-70
2021/01/13 12:46:52;;;;;;;3.10;1.30;;;;;;;;;;10416942;28;20569;-70
2021/01/13 12:51:55;;;;;;;2.67;0.87;;;;;;;;;;10396599;28;20314;-71
2021/01/13 12:56:57;;;;;;;2.77;1.40;;;;;;;;;;10413857;28;20218;-70
2021/01/13 13:02:00;;;;;;;3.40;1.50;;;;;;;;;;10406149;28;20200;-70
2021/01/13 13:07:04;;;;;;;3.10;1.33;;;;;;;;;;10416853;28;20214;-70
2021/01/13 13:12:06;;;;;;;3.47;1.50;;;;;;;;;;10419673;28;20630;-70
2021/01/13 13:17:09;;;;;;;5.23;1.80;;;;;;;;;;10419913;28;20726;-71
2021/01/13 13:22:11;;;;;;;5.43;1.90;;;;;;;;;;10411771;28;20841;-70
2021/01/13 13:27:13;;;;;;;3.07;1.40;;;;;;;;;;10413454;28;20653;-70
2021/01/13 13:32:17;;;;;;;10.17;2.20;;;;;;;;;;10418753;28;20198;-71
2021/01/13 13:37:19;;;;;;;6.50;1.70;;;;;;;;;;10411843;28;20272;-69
2021/01/13 13:42:21;;;;;;;6.77;2.10;;;;;;;;;;10412731;28;20197;-68
2021/01/13 13:47:23;;;;;;;5.40;2.33;;;;;;;;;;10427895;28;20692;-71
2021/01/13 13:52:25;;;;;;;3.63;1.63;;;;;;;;;;10427927;28;20221;-70
2021/01/13 13:57:32;;;;;;;6.57;2.23;;;;;;;;;;10416241;28;20220;-69
2021/01/13 14:02:35;;;;;;;4.90;1.47;;;;;;;;;;10414766;28;20198;-68
2021/01/13 14:07:36;;;;;;;4.73;2.10;;;;;;;;;;10404552;28;20214;-69
2021/01/13 14:12:38;;;;;;;3.53;1.33;;;;;;;;;;10381952;28;20263;-69
2021/01/13 14:17:40;;;;;;;6.27;2.33;;;;;;;;;;10404750;28;20227;-70
2021/01/13 14:22:42;;;;;;;0.97;0.80;;;;;;;;;;10402118;28;20206;-70
2021/01/13 14:27:44;;;;;;;4.47;1.30;;;;;;;;;;10384520;28;20279;-69
2021/01/13 14:32:50;;;;;;;4.17;1.47;;;;;;;;;;10389890;28;20210;-69
2021/01/13 14:37:51;;;;;;;4.80;2.03;;;;;;;;;;10410210;28;20228;-69
2021/01/13 14:42:53;;;;;;;2.70;1.17;;;;;;;;;;10410543;28;20281;-69
2021/01/13 14:47:57;;;;;;;7.43;1.90;;;;;;;;;;10407870;28;20258;-70
2021/01/13 14:52:58;;;;;;;4.50;2.00;;;;;;;;;;10407733;28;20244;-70
2021/01/13 14:58:00;;;;;;;6.60;1.70;;;;;;;;;;10382984;28;20237;-69
2021/01/13 15:03:05;;;;;;;3.67;1.50;;;;;;;;;;10395637;28;20651;-70
2021/01/13 15:08:07;;;;;;;5.23;1.33;;;;;;;;;;10408817;28;20249;-70
2021/01/13 15:13:08;;;;;;;3.30;1.80;;;;;;;;;;10411159;28;20308;-70
2021/01/13 15:18:10;;;;;;;3.00;1.17;;;;;;;;;;10410815;28;20256;-70
2021/01/13 15:23:12;;;;;;;5.17;1.27;;;;;;;;;;10404890;28;20264;-70
2021/01/13 15:28:14;;;;;;;4.00;1.40;;;;;;;;;;10409691;28;20582;-71
2021/01/13 15:33:16;;;;;;;4.03;1.60;;;;;;;;;;10402692;28;20244;-70
2021/01/13 15:38:18;;;;;;;3.40;1.70;;;;;;;;;;10404665;28;20312;-71
2021/01/13 15:43:21;;;;;;;7.37;2.83;;;;;;;;;;10390674;28;20220;-71
2021/01/13 15:48:23;;;;;;;4.17;1.83;;;;;;;;;;10404458;28;20214;-70
2021/01/13 15:53:25;;;;;;;4.63;2.07;;;;;;;;;;10403912;28;20261;-70
2021/01/13 15:58:30;;;;;;;6.80;2.70;;;;;;;;;;10405838;28;20693;-70
2021/01/13 16:03:33;;;;;;;4.70;1.43;;;;;;;;;;10404308;28;20188;-70
2021/01/13 16:08:34;;;;;;;5.37;2.20;;;;;;;;;;10406255;28;20276;-69
2021/01/13 16:13:39;;;;;;;8.43;3.33;;;;;;;;;;10406794;28;20233;-70
2021/01/13 16:18:41;;;;;;;7.17;3.10;;;;;;;;;;10405750;28;20603;-70
2021/01/13 16:23:43;;;;;;;8.83;3.40;;;;;;;;;;10402875;28;20281;-71
2021/01/13 16:28:46;;;;;;;7.93;3.10;;;;;;;;;;10410228;28;20768;-71
2021/01/13 16:33:50;;;;;;;7.40;3.23;;;;;;;;;;10402474;28;20260;-71
2021/01/13 16:38:53;;;;;;;7.17;2.97;;;;;;;;;;10402792;28;20228;-71
2021/01/13 16:43:55;;;;;;;10.87;3.90;;;;;;;;;;10412942;28;20230;-71
2021/01/13 16:48:58;;;;;;;8.80;4.00;;;;;;;;;;10408062;28;21761;-70
2021/01/13 16:54:00;;;;;;;9.30;3.70;;;;;;;;;;10407894;28;20638;-70
2021/01/13 16:59:05;;;;;;;9.87;3.67;;;;;;;;;;10403533;28;20213;-70
2021/01/13 17:04:08;;;;;;;7.77;3.67;;;;;;;;;;10384091;28;20214;-69
2021/01/13 17:09:10;;;;;;;9.67;4.13;;;;;;;;;;10398175;28;20213;-69
2021/01/13 17:14:12;;;;;;;8.40;3.50;;;;;;;;;;10396154;28;20210;-70
2021/01/13 17:19:15;;;;;;;8.67;3.80;;;;;;;;;;10401477;28;20291;-71
2021/01/13 17:24:16;;;;;;;5.87;2.73;;;;;;;;;;10402851;28;20190;-73
2021/01/13 17:29:18;;;;;;;9.87;4.10;;;;;;;;;;10382124;28;20268;-72
2021/01/13 17:34:24;;;;;;;10.93;4.37;;;;;;;;;;10393995;28;20577;-73
2021/01/13 17:39:25;;;;;;;7.40;3.67;;;;;;;;;;10410877;28;20217;-73
2021/01/13 17:44:27;;;;;;;5.83;2.63;;;;;;;;;;10407626;28;20599;-73
2021/01/13 17:49:30;;;;;;;8.37;4.17;;;;;;;;;;10405807;28;20654;-72
2021/01/13 17:54:33;;;;;;;7.30;3.00;;;;;;;;;;10411219;28;20573;-73
2021/01/13 17:59:35;;;;;;;9.17;4.13;;;;;;;;;;10393009;28;20341;-73
2021/01/13 18:04:43;;;;;;;8.80;4.07;;;;;;;;;;10408824;28;20194;-73
2021/01/13 18:09:45;;;;;;;8.60;3.50;;;;;;;;;;10408150;28;20241;-71
2021/01/13 18:14:46;;;;;;;6.80;2.90;;;;;;;;;;10408736;28;20225;-71
2021/01/13 18:19:49;;;;;;;8.40;3.47;;;;;;;;;;10413898;28;20244;-73
2021/01/13 18:24:51;;;;;;;9.30;4.20;;;;;;;;;;10391488;28;20297;-72
2021/01/13 18:29:52;;;;;;;5.17;2.40;;;;;;;;;;10410300;28;20249;-72
2021/01/13 18:34:57;;;;;;;6.53;3.47;;;;;;;;;;10377717;28;20244;-73
2021/01/13 18:39:58;;;;;;;4.50;2.17;;;;;;;;;;10404347;28;20600;-72
2021/01/13 18:45:00;;;;;;;5.90;2.60;;;;;;;;;;10407400;28;20230;-71
2021/01/13 18:50:06;;;;;;;4.80;2.57;;;;;;;;;;10403196;28;20225;-70
2021/01/13 18:55:08;;;;;;;4.10;2.20;;;;;;;;;;10404797;28;20213;-72
2021/01/13 19:00:10;;;;;;;5.93;2.60;;;;;;;;;;10385954;28;20305;-71
2021/01/13 19:05:13;;;;;;;5.67;2.37;;;;;;;;;;10407542;28;20222;-71
2021/01/13 19:10:14;;;;;;;5.73;2.93;;;;;;;;;;10388378;28;20276;-70
2021/01/13 19:15:17;;;;;;;7.47;3.30;;;;;;;;;;10392321;28;20212;-72
2021/01/13 19:20:20;;;;;;;4.83;2.10;;;;;;;;;;10403442;28;20229;-71
2021/01/13 19:25:22;;;;;;;4.03;1.80;;;;;;;;;;10403087;28;20287;-73
2021/01/13 19:30:24;;;;;;;6.13;2.43;;;;;;;;;;10402542;28;20209;-72
2021/01/13 19:35:27;;;;;;;4.53;2.03;;;;;;;;;;10402153;28;20656;-71
2021/01/13 19:40:29;;;;;;;3.17;1.17;;;;;;;;;;10408479;28;20292;-72
2021/01/13 19:45:30;;;;;;;4.53;1.90;;;;;;;;;;10381250;28;20285;-72
2021/01/13 19:50:33;;;;;;;2.90;1.40;;;;;;;;;;10400149;28;20222;-71
2021/01/13 19:55:35;;;;;;;3.60;1.67;;;;;;;;;;10407860;28;20212;-71
2021/01/13 20:00:37;;;;;;;3.60;1.43;;;;;;;;;;10399414;28;20205;-71
2021/01/13 20:05:39;;;;;;;2.67;1.17;;;;;;;;;;10401142;28;20185;-72
2021/01/13 20:10:41;;;;;;;4.93;1.70;;;;;;;;;;10395851;28;20293;-74
2021/01/13 20:15:43;;;;;;;2.00;1.00;;;;;;;;;;10406032;28;20698;-72
2021/01/13 20:20:45;;;;;;;3.03;1.70;;;;;;;;;;10381078;28;20592;-70
2021/01/13 20:25:47;;;;;;;2.57;1.47;;;;;;;;;;10381689;28;20665;-71
2021/01/13 20:30:48;;;;;;;4.60;2.37;;;;;;;;;;10404239;28;20593;-72
2021/01/13 20:35:50;;;;;;;5.50;2.67;;;;;;;;;;10401663;28;20305;-72
2021/01/13 20:40:52;;;;;;;6.97;2.83;;;;;;;;;;10402935;28;20256;-71
2021/01/13 20:45:54;;;;;;;4.10;2.07;;;;;;;;;;10401216;28;20213;-72
2021/01/13 20:50:56;;;;;;;6.43;2.93;;;;;;;;;;10388268;28;20241;-71
2021/01/13 20:55:58;;;;;;;6.77;3.47;;;;;;;;;;10400630;28;20216;-72
2021/01/13 21:01:00;;;;;;;6.50;3.13;;;;;;;;;;10402195;28;20256;-69
2021/01/13 21:06:03;;;;;;;6.67;3.00;;;;;;;;;;10384538;28;20186;-71
2021/01/13 21:11:05;;;;;;;5.17;2.50;;;;;;;;;;10416849;28;20227;-70
2021/01/13 21:16:06;;;;;;;5.43;2.53;;;;;;;;;;10421255;28;20272;-71
2021/01/13 21:21:11;;;;;;;4.80;2.53;;;;;;;;;;10427238;28;20311;-70
2021/01/13 21:26:13;;;;;;;5.50;2.60;;;;;;;;;;10423389;28;20209;-71
2021/01/13 21:31:15;;;;;;;4.60;2.40;;;;;;;;;;10422284;28;20218;-71
2021/01/13 21:36:23;;;;;;;4.43;2.20;;;;;;;;;;10410323;28;20706;-72
2021/01/13 21:41:25;;;;;;;4.53;1.80;;;;;;;;;;10408426;28;20269;-72
2021/01/13 21:46:27;;;;;;;2.80;1.07;;;;;;;;;;10411924;28;20186;-71
2021/01/13 21:51:32;;;;;;;3.37;1.50;;;;;;;;;;10414896;28;20277;-70
2021/01/13 21:56:37;;;;;;;0.93;0.60;;;;;;;;;;10412696;28;20213;-71
2021/01/13 22:01:38;;;;;;;1.20;0.90;;;;;;;;;;10412281;28;20576;-70
2021/01/13 22:06:41;;;;;;;1.00;0.70;;;;;;;;;;10406346;28;20212;-70
2021/01/13 22:11:44;;;;;;;1.73;0.50;;;;;;;;;;10389393;28;20197;-70
2021/01/13 22:16:52;;;;;;;0.60;0.60;;;;;;;;;;10408423;28;20279;-72
2021/01/13 22:21:56;;;;;;;0.57;0.37;;;;;;;;;;10419552;28;20189;-71
2021/01/13 22:26:58;;;;;;;0.50;0.40;;;;;;;;;;10390822;28;20272;-70
2021/01/13 22:31:59;;;;;;;1.40;0.70;;;;;;;;;;10388657;28;20209;-70
2021/01/13 22:37:03;;;;;;;0.33;0.33;;;;;;;;;;10390010;28;20264;-71
2021/01/13 22:42:04;;;;;;;0.63;0.53;;;;;;;;;;10404900;28;20230;-71
2021/01/13 22:47:06;;;;;;;1.03;0.50;;;;;;;;;;10402865;28;20674;-71
2021/01/13 22:52:09;;;;;;;0.50;0.50;;;;;;;;;;10383101;28;20212;-71
2021/01/13 22:57:10;;;;;;;1.50;0.30;;;;;;;;;;10414959;28;20253;-71
2021/01/13 23:02:12;;;;;;;0.80;0.43;;;;;;;;;;10395142;28;20225;-70
2021/01/13 23:07:15;;;;;;;1.03;0.73;;;;;;;;;;10405280;28;20289;-71
2021/01/13 23:12:16;;;;;;;0.53;0.50;;;;;;;;;;10408530;28;20194;-71
2021/01/13 23:17:18;;;;;;;2.03;0.97;;;;;;;;;;10397257;28;20286;-71
2021/01/13 23:22:21;;;;;;;0.80;0.60;;;;;;;;;;10401004;28;20641;-70
2021/01/13 23:27:22;;;;;;;0.70;0.57;;;;;;;;;;10397626;28;20216;-71
2021/01/13 23:32:24;;;;;;;0.90;0.60;;;;;;;;;;10407921;28;20632;-71
2021/01/13 23:37:26;;;;;;;1.50;0.73;;;;;;;;;;10386866;28;20851;-72
2021/01/13 23:42:28;;;;;;;0.27;0.27;;;;;;;;;;10383975;28;20276;-70
2021/01/13 23:47:29;;;;;;;1.57;0.80;;;;;;;;;;10405313;28;20230;-71
2021/01/13 23:52:35;;;;;;;1.63;0.80;;;;;;;;;;10385328;28;20346;-72
2021/01/13 23:57:37;;;;;;;0.80;0.77;;;;;;;;;;10387920;28;20308;-71
